createdAt,value
2022-11-12T00:01:10.298Z,97904.56
2022-11-12T00:03:57.318Z,97909.66
2022-11-12T00:06:42.930Z,97876.25
2022-11-12T00:09:28.100Z,97873.75
2022-11-12T00:12:13.195Z,97909.66
2022-11-12T00:14:58.578Z,97897.47
2022-11-12T00:17:44.086Z,97909.84
2022-11-12T00:20:29.122Z,97899.69
2022-11-12T00:23:14.883Z,97895.03
2022-11-12T00:26:01.393Z,97902.88
2022-11-12T00:28:46.471Z,97878.91
2022-11-12T00:31:31.718Z,97902.47
2022-11-12T00:34:17.034Z,97880.63
2022-11-12T00:37:02.862Z,97915.56
2022-11-12T00:39:48.072Z,97912.66
2022-11-12T00:42:33.399Z,97912.09
2022-11-12T00:45:19.836Z,97903.63
2022-11-12T00:48:05.073Z,97885.53
2022-11-12T00:50:50.361Z,97866.78
2022-11-12T00:53:35.664Z,97822.50
2022-11-12T00:56:21.044Z,97877.00
2022-11-12T00:59:06.307Z,97877.09
2022-11-12T01:01:51.797Z,97847.66
2022-11-12T01:04:36.972Z,97858.94
2022-11-12T01:07:22.227Z,97876.25
2022-11-12T01:10:09.028Z,97873.00
2022-11-12T01:12:54.641Z,97848.75
2022-11-12T01:15:43.042Z,97865.66
2022-11-12T01:18:28.685Z,97861.06
2022-11-12T01:21:14.598Z,97837.00
2022-11-12T01:24:01.349Z,97854.53
2022-11-12T01:26:47.752Z,97852.41
2022-11-12T01:29:32.629Z,97861.91
2022-11-12T01:32:17.862Z,97829.53
2022-11-12T01:35:03.449Z,97833.44
2022-11-12T01:37:48.697Z,97736.84
2022-11-12T01:40:34.092Z,97846.22
2022-11-12T01:43:19.336Z,97855.88
2022-11-12T01:46:27.091Z,97851.09
2022-11-12T01:49:19.340Z,97855.69
2022-11-12T01:52:14.094Z,97845.84
2022-11-12T01:55:05.409Z,97853.22
2022-11-12T01:58:06.568Z,97826.50
2022-11-12T02:00:51.999Z,97828.88
2022-11-12T02:03:37.176Z,97860.50
2022-11-12T02:06:23.619Z,97857.09
2022-11-12T02:09:09.652Z,97855.75
2022-11-12T02:11:54.704Z,97838.56
2022-11-12T02:14:39.908Z,97868.66
2022-11-12T02:17:25.183Z,97867.25
2022-11-12T02:20:12.701Z,97870.00
2022-11-12T02:22:57.669Z,97866.84
2022-11-12T02:25:42.665Z,97832.50
2022-11-12T02:28:31.362Z,97865.13
2022-11-12T02:31:16.619Z,97844.00
2022-11-12T02:34:02.667Z,97863.91
2022-11-12T02:36:47.905Z,97837.75
2022-11-12T02:39:33.316Z,97865.59
2022-11-12T02:42:18.687Z,97823.03
2022-11-12T02:45:24.480Z,97830.53
2022-11-12T02:48:09.512Z,97848.34
2022-11-12T02:50:54.746Z,97854.84
2022-11-12T02:53:39.943Z,97854.16
2022-11-12T02:56:24.838Z,97825.31
2022-11-12T02:59:10.100Z,97825.81
2022-11-12T03:01:55.354Z,97823.59
2022-11-12T03:04:44.238Z,97848.13
2022-11-12T03:07:31.780Z,97843.13
2022-11-12T03:10:16.736Z,97854.22
2022-11-12T03:13:02.394Z,97850.97
2022-11-12T03:15:47.676Z,97853.75
2022-11-12T03:18:33.218Z,97827.56
2022-11-12T03:21:18.384Z,97853.94
2022-11-12T03:24:03.923Z,97842.47
2022-11-12T03:26:49.294Z,97814.22
2022-11-12T03:29:34.510Z,97845.28
2022-11-12T03:32:19.685Z,97825.84
2022-11-12T03:35:05.387Z,97816.44
2022-11-12T03:37:50.817Z,97836.44
2022-11-12T03:40:36.147Z,97849.13
2022-11-12T03:43:21.580Z,97850.22
2022-11-12T03:46:06.841Z,97832.59
2022-11-12T03:48:53.204Z,97843.94
2022-11-12T03:51:38.495Z,97834.38
2022-11-12T03:54:23.572Z,97857.66
2022-11-12T03:57:08.776Z,97854.94
2022-11-12T03:59:54.133Z,97847.59
2022-11-12T04:02:39.402Z,97828.22
2022-11-12T04:05:43.642Z,97832.81
2022-11-12T04:08:37.890Z,97844.19
2022-11-12T04:11:23.766Z,97838.47
2022-11-12T04:14:08.778Z,97787.81
2022-11-12T04:17:32.172Z,97838.91
2022-11-12T04:20:35.897Z,97843.88
2022-11-12T04:23:21.143Z,97822.34
2022-11-12T04:26:24.193Z,97818.59
2022-11-12T04:29:28.136Z,97820.25
2022-11-12T04:32:14.088Z,97833.53
2022-11-12T04:34:59.459Z,97841.69
2022-11-12T04:37:45.328Z,97842.78
2022-11-12T04:40:50.325Z,97840.50
2022-11-12T04:43:54.207Z,97822.31
2022-11-12T04:46:39.497Z,97791.84
2022-11-12T04:49:24.836Z,97836.84
2022-11-12T04:52:10.157Z,97821.66
2022-11-12T04:54:56.214Z,97853.63
2022-11-12T04:57:41.125Z,97834.88
2022-11-12T05:00:26.485Z,97818.03
2022-11-12T05:03:11.964Z,97828.78
2022-11-12T05:06:25.586Z,97845.47
2022-11-12T05:09:10.971Z,97833.03
2022-11-12T05:11:57.120Z,97822.31
2022-11-12T05:14:42.266Z,97855.28
2022-11-12T05:17:27.394Z,97861.31
2022-11-12T05:20:14.351Z,97859.59
2022-11-12T05:23:06.627Z,97863.13
2022-11-12T05:25:52.517Z,97835.19
2022-11-12T05:28:37.662Z,97863.06
2022-11-12T05:31:23.193Z,97858.88
2022-11-12T05:34:08.573Z,97842.38
2022-11-12T05:36:53.860Z,97855.53
2022-11-12T05:39:39.324Z,97834.25
2022-11-12T05:42:24.591Z,97848.00
2022-11-12T05:45:10.114Z,97862.75
2022-11-12T05:47:55.402Z,97849.03
2022-11-12T05:50:58.569Z,97859.56
2022-11-12T05:53:46.104Z,97862.50
2022-11-12T05:56:31.640Z,97865.25
2022-11-12T05:59:16.680Z,97846.84
2022-11-12T06:02:01.902Z,97837.63
2022-11-12T06:04:47.027Z,97881.16
2022-11-12T06:07:32.220Z,97877.28
2022-11-12T06:10:20.480Z,97861.56
2022-11-12T06:13:05.970Z,97874.44
2022-11-12T06:15:55.238Z,97856.72
2022-11-12T06:18:40.210Z,97850.78
2022-11-12T06:21:27.512Z,97864.16
2022-11-12T06:24:12.734Z,97875.25
2022-11-12T06:26:57.955Z,97882.31
2022-11-12T06:29:43.180Z,97850.50
2022-11-12T06:32:28.147Z,97883.34
2022-11-12T06:35:13.940Z,97873.88
2022-11-12T06:37:59.028Z,97859.91
2022-11-12T06:40:44.271Z,97880.22
2022-11-12T06:43:32.116Z,97885.09
2022-11-12T06:46:18.147Z,97896.41
2022-11-12T06:49:03.683Z,97888.09
2022-11-12T06:51:51.356Z,97885.03
2022-11-12T06:54:36.638Z,97853.00
2022-11-12T06:57:21.841Z,97890.47
2022-11-12T07:00:09.470Z,97895.44
2022-11-12T07:02:54.576Z,97843.94
2022-11-12T07:05:39.729Z,97853.06
2022-11-12T07:08:25.361Z,97888.41
2022-11-12T07:11:11.387Z,97872.72
2022-11-12T07:13:56.815Z,97867.72
2022-11-12T07:16:41.930Z,97897.47
2022-11-12T07:19:27.296Z,97897.38
2022-11-12T07:22:12.717Z,97878.59
2022-11-12T07:24:57.795Z,97904.50
2022-11-12T07:27:42.927Z,97888.09
2022-11-12T07:30:28.231Z,97866.91
2022-11-12T07:33:13.215Z,97893.09
2022-11-12T07:36:03.136Z,97902.00
2022-11-12T07:38:51.818Z,97887.63
2022-11-12T07:41:36.989Z,97889.53
2022-11-12T07:44:21.960Z,97877.34
2022-11-12T07:47:07.324Z,97875.63
2022-11-12T07:49:52.677Z,97881.09
2022-11-12T07:52:37.879Z,97874.97
2022-11-12T07:55:23.069Z,97887.59
2022-11-12T07:58:08.096Z,97909.22
2022-11-12T08:00:54.013Z,97919.72
2022-11-12T08:03:39.223Z,97906.59
2022-11-12T08:06:25.084Z,97922.03
2022-11-12T08:09:10.728Z,97914.13
2022-11-12T08:11:56.024Z,97886.50
2022-11-12T08:14:41.323Z,97891.16
2022-11-12T08:17:26.751Z,97885.69
2022-11-12T08:20:13.072Z,97876.66
2022-11-12T08:23:01.405Z,97902.38
2022-11-12T08:25:46.705Z,97895.97
2022-11-12T08:28:33.429Z,97911.97
2022-11-12T08:31:23.743Z,97903.22
2022-11-12T08:34:18.680Z,97887.94
2022-11-12T08:37:07.659Z,97886.22
2022-11-12T08:39:52.878Z,97906.28
2022-11-12T08:42:38.273Z,97918.56
2022-11-12T08:45:23.486Z,97911.53
2022-11-12T08:48:14.367Z,97916.09
2022-11-12T08:51:02.429Z,97893.53
2022-11-12T08:53:47.259Z,97872.03
2022-11-12T08:56:33.940Z,97902.59
2022-11-12T08:59:18.757Z,97888.97
2022-11-12T09:02:04.065Z,97913.00
2022-11-12T09:04:49.303Z,97917.69
2022-11-12T09:07:50.999Z,97915.63
2022-11-12T09:10:37.410Z,97906.31
2022-11-12T09:13:23.442Z,97923.53
2022-11-12T09:16:10.149Z,97879.56
2022-11-12T09:18:55.651Z,97882.50
2022-11-12T09:21:40.758Z,97912.94
2022-11-12T09:24:26.052Z,97909.34
2022-11-12T09:27:11.102Z,97918.81
2022-11-12T09:29:56.568Z,97924.38
2022-11-12T09:32:42.083Z,97929.25
2022-11-12T09:35:27.387Z,97907.06
2022-11-12T09:38:14.901Z,97920.97
2022-11-12T09:41:13.780Z,97922.63
2022-11-12T09:44:25.382Z,97930.00
2022-11-12T09:47:32.634Z,97917.63
2022-11-12T09:50:56.071Z,97903.44
2022-11-12T09:53:50.299Z,97909.00
2022-11-12T09:56:35.181Z,97919.94
2022-11-12T09:59:22.444Z,97922.84
2022-11-12T10:02:26.344Z,97902.59
2022-11-12T10:05:30.315Z,97918.56
2022-11-12T10:08:39.498Z,97903.97
2022-11-12T10:12:21.013Z,97914.03
2022-11-12T10:15:43.833Z,97909.44
2022-11-12T10:18:39.697Z,97903.16
2022-11-12T10:21:30.943Z,97920.03
2022-11-12T10:24:16.035Z,97910.63
2022-11-12T10:27:22.781Z,97882.97
2022-11-12T10:30:16.904Z,97902.38
2022-11-12T10:33:03.331Z,97870.91
2022-11-12T10:35:49.213Z,97897.66
2022-11-12T10:38:35.746Z,97877.34
2022-11-12T10:41:25.444Z,97876.06
2022-11-12T10:44:17.431Z,97897.50
2022-11-12T10:47:21.757Z,97896.00
2022-11-12T10:50:10.269Z,97897.31
2022-11-12T10:52:59.092Z,97890.75
2022-11-12T10:56:02.488Z,97885.75
2022-11-12T10:59:10.038Z,97893.63
2022-11-12T11:02:00.298Z,97878.56
2022-11-12T11:04:46.440Z,97860.13
2022-11-12T11:07:31.609Z,97845.00
2022-11-12T11:10:29.199Z,97867.03
2022-11-12T11:13:23.212Z,97874.22
2022-11-12T11:16:14.592Z,97881.91
2022-11-12T11:19:04.097Z,97858.06
2022-11-12T11:21:49.146Z,97876.75
2022-11-12T11:24:44.869Z,97878.59
2022-11-12T11:27:47.425Z,97853.38
2022-11-12T11:30:33.644Z,97849.66
2022-11-12T11:33:40.071Z,97843.16
2022-11-12T11:36:46.327Z,97847.88
2022-11-12T11:39:31.267Z,97867.06
2022-11-12T11:42:45.226Z,97852.09
2022-11-12T11:45:37.311Z,97858.94
2022-11-12T11:48:50.747Z,97858.41
2022-11-12T11:52:07.682Z,97859.47
2022-11-12T11:55:12.234Z,97861.00
2022-11-12T11:58:15.530Z,97849.13
2022-11-12T12:01:20.439Z,97848.00
2022-11-12T12:04:30.504Z,97850.31
2022-11-12T12:07:27.987Z,97842.94
2022-11-12T12:10:40.217Z,97826.50
2022-11-12T12:13:34.222Z,97837.72
2022-11-12T12:16:37.418Z,97836.38
2022-11-12T12:19:46.856Z,97823.66
2022-11-12T12:22:48.734Z,97826.88
2022-11-12T12:25:38.964Z,97817.31
2022-11-12T12:28:53.823Z,97844.16
2022-11-12T12:31:47.640Z,97826.31
2022-11-12T12:34:42.451Z,97829.44
2022-11-12T12:37:35.622Z,97830.03
2022-11-12T12:40:35.592Z,97832.59
2022-11-12T12:43:28.833Z,97810.88
2022-11-12T12:46:17.089Z,97803.03
2022-11-12T12:49:05.123Z,97808.09
2022-11-12T12:51:55.429Z,97823.03
2022-11-12T12:54:40.640Z,97813.47
2022-11-12T12:57:38.068Z,97783.31
2022-11-12T13:00:29.400Z,97814.25
2022-11-12T13:03:46.159Z,97801.06
2022-11-12T13:06:35.248Z,97795.97
2022-11-12T13:09:25.813Z,97773.91
2022-11-12T13:12:11.021Z,97806.34
2022-11-12T13:15:19.535Z,97806.34
2022-11-12T13:18:12.921Z,97798.47
2022-11-12T13:21:16.059Z,97809.44
2022-11-12T13:24:28.748Z,97784.00
2022-11-12T13:27:13.592Z,97788.31
2022-11-12T13:29:58.973Z,97792.56
2022-11-12T13:32:54.791Z,97800.38
2022-11-12T13:35:40.787Z,97761.09
2022-11-12T13:38:26.618Z,97792.16
2022-11-12T13:41:19.533Z,97782.88
2022-11-12T13:44:09.878Z,97791.44
2022-11-12T13:46:56.078Z,97780.50
2022-11-12T13:49:43.055Z,97794.66
2022-11-12T13:52:28.936Z,97768.78
2022-11-12T13:55:18.273Z,97790.16
2022-11-12T13:58:03.510Z,97768.78
2022-11-12T14:01:00.881Z,97765.94
2022-11-12T14:03:51.613Z,97784.22
2022-11-12T14:06:50.827Z,97787.06
2022-11-12T14:10:02.288Z,97788.84
2022-11-12T14:13:06.296Z,97717.75
2022-11-12T14:16:25.451Z,97777.94
2022-11-12T14:19:52.734Z,97782.69
2022-11-12T14:22:43.418Z,97779.28
2022-11-12T14:25:28.808Z,97773.50
2022-11-12T14:28:32.008Z,97770.72
2022-11-12T14:31:25.129Z,97735.88
2022-11-12T14:34:34.054Z,97760.53
2022-11-12T14:37:43.333Z,97748.38
2022-11-12T14:40:32.061Z,97748.31
2022-11-12T14:43:41.473Z,97709.84
2022-11-12T14:46:56.715Z,97739.19
2022-11-12T14:49:45.454Z,97742.06
2022-11-12T14:52:43.755Z,97731.38
2022-11-12T14:55:33.023Z,97737.13
2022-11-12T14:58:20.223Z,97730.84
2022-11-12T15:04:42.320Z,97710.75
2022-11-12T15:07:33.532Z,97729.97
2022-11-12T15:10:35.753Z,97721.31
2022-11-12T15:13:24.784Z,97711.69
2022-11-12T15:16:11.910Z,97699.19
2022-11-12T15:19:09.220Z,97709.50
2022-11-12T15:21:56.906Z,97717.09
2022-11-12T15:24:44.749Z,97681.75
2022-11-12T15:27:35.762Z,97713.78
2022-11-12T15:30:25.482Z,97683.63
2022-11-12T15:33:13.713Z,97713.38
2022-11-12T15:36:01.076Z,97685.00
2022-11-12T15:38:54.241Z,97704.97
2022-11-12T15:41:40.050Z,97700.78
2022-11-12T15:44:25.727Z,97699.72
2022-11-12T15:47:20.518Z,97693.69
2022-11-12T15:50:16.836Z,97683.22
2022-11-12T15:53:02.086Z,97679.25
2022-11-12T15:55:47.399Z,97681.38
2022-11-12T15:58:35.112Z,97706.03
2022-11-12T16:01:21.347Z,97699.75
2022-11-12T16:04:06.845Z,97698.16
2022-11-12T16:06:51.805Z,97683.94
2022-11-12T16:09:38.954Z,97707.88
2022-11-12T16:12:24.320Z,97684.19
2022-11-12T16:15:14.399Z,97683.16
2022-11-12T16:18:02.325Z,97691.28
2022-11-12T16:20:48.532Z,97678.41
2022-11-12T16:23:33.872Z,97672.88
2022-11-12T16:26:25.952Z,97686.25
2022-11-12T16:29:14.121Z,97690.63
2022-11-12T16:31:59.599Z,97676.94
2022-11-12T16:34:44.586Z,97676.16
2022-11-12T16:37:30.244Z,97687.97
2022-11-12T16:40:21.118Z,97698.72
2022-11-12T16:43:06.017Z,97677.41
2022-11-12T16:45:51.286Z,97696.34
2022-11-12T16:48:38.088Z,97671.13
2022-11-12T16:51:23.551Z,97688.22
2022-11-12T16:54:08.927Z,97667.41
2022-11-12T16:56:54.221Z,97647.69
2022-11-12T16:59:39.477Z,97676.03
2022-11-12T17:02:24.944Z,97665.25
2022-11-12T17:05:20.406Z,97667.84
2022-11-12T17:08:05.715Z,97664.03
2022-11-12T17:10:50.971Z,97667.97
2022-11-12T17:13:38.679Z,97676.63
2022-11-12T17:16:23.666Z,97683.25
2022-11-12T17:19:10.608Z,97699.22
2022-11-12T17:21:55.591Z,97637.94
2022-11-12T17:24:40.954Z,97693.97
2022-11-12T17:27:26.360Z,97652.44
2022-11-12T17:30:32.104Z,97676.75
2022-11-12T17:33:17.408Z,97665.44
2022-11-12T17:36:04.906Z,97689.09
2022-11-12T17:38:57.093Z,97686.75
2022-11-12T17:41:42.311Z,97657.03
2022-11-12T17:44:27.344Z,97685.16
2022-11-12T17:47:13.151Z,97667.34
2022-11-12T17:49:58.377Z,97648.66
2022-11-12T17:52:43.872Z,97655.16
2022-11-12T17:55:28.862Z,97635.44
2022-11-12T17:58:13.823Z,97665.47
2022-11-12T18:01:12.578Z,97668.44
2022-11-12T18:03:58.711Z,97661.66
2022-11-12T18:06:43.808Z,97648.94
2022-11-12T18:09:28.950Z,97581.84
2022-11-12T18:12:15.091Z,97621.84
2022-11-12T18:15:00.021Z,97657.81
2022-11-12T18:17:45.331Z,97631.28
2022-11-12T18:20:30.546Z,97631.25
2022-11-12T18:23:16.052Z,97614.44
2022-11-12T18:26:01.305Z,97649.16
2022-11-12T18:28:52.744Z,97650.69
2022-11-12T18:31:38.154Z,97646.41
2022-11-12T18:34:23.560Z,97613.25
2022-11-12T18:37:08.775Z,97628.38
2022-11-12T18:39:54.198Z,97638.72
2022-11-12T18:42:39.454Z,97561.41
2022-11-12T18:45:24.747Z,97636.28
2022-11-12T18:48:10.170Z,97618.69
2022-11-12T18:51:07.193Z,97636.75
2022-11-12T18:53:52.717Z,97611.50
2022-11-12T18:56:40.021Z,97622.53
2022-11-12T18:59:30.598Z,97634.06
2022-11-12T19:02:16.220Z,97599.78
2022-11-12T19:05:01.483Z,97603.69
2022-11-12T19:07:46.820Z,97610.06
2022-11-12T19:10:32.073Z,97631.03
2022-11-12T19:13:17.356Z,97624.03
2022-11-12T19:16:08.034Z,97579.38
2022-11-12T19:18:53.311Z,97612.75
2022-11-12T19:21:38.892Z,97611.13
2022-11-12T19:24:23.932Z,97590.00
2022-11-12T19:27:08.894Z,97601.06
2022-11-12T19:29:58.446Z,97604.44
2022-11-12T19:32:47.287Z,97583.66
2022-11-12T19:35:32.658Z,97571.63
2022-11-12T19:38:17.806Z,97586.19
2022-11-12T19:41:19.086Z,97595.19
2022-11-12T19:44:05.390Z,97589.59
2022-11-12T19:46:50.618Z,97592.47
2022-11-12T19:49:36.292Z,97568.13
2022-11-12T19:52:22.378Z,97580.50
2022-11-12T19:55:07.954Z,97563.50
2022-11-12T19:57:52.930Z,97585.28
2022-11-12T20:00:38.369Z,97581.06
2022-11-12T20:03:25.802Z,97567.34
2022-11-12T20:06:16.632Z,97581.31
2022-11-12T20:09:01.746Z,97554.88
2022-11-12T20:11:46.698Z,97539.00
2022-11-12T20:14:31.939Z,97560.59
2022-11-12T20:17:17.227Z,97548.94
2022-11-12T20:20:02.652Z,97546.44
2022-11-12T20:22:47.796Z,97548.38
2022-11-12T20:25:33.171Z,97574.53
2022-11-12T20:28:18.604Z,97581.41
2022-11-12T20:31:06.869Z,97577.81
2022-11-12T20:33:52.577Z,97579.34
2022-11-12T20:36:37.795Z,97570.91
2022-11-12T20:39:22.889Z,97584.38
2022-11-12T20:42:07.957Z,97576.53
2022-11-12T20:44:53.707Z,97561.50
2022-11-12T20:47:39.057Z,97552.91
2022-11-12T20:50:24.687Z,97559.84
2022-11-12T20:53:09.845Z,97553.28
2022-11-12T20:55:54.976Z,97575.38
2022-11-12T20:58:40.668Z,97546.09
2022-11-12T21:01:27.965Z,97579.66
2022-11-12T21:04:13.137Z,97571.09
2022-11-12T21:07:02.389Z,97575.47
2022-11-12T21:09:50.523Z,97584.13
2022-11-12T21:12:36.010Z,97590.13
2022-11-12T21:15:21.462Z,97573.78
2022-11-12T21:18:06.466Z,97543.81
2022-11-12T21:20:52.700Z,97571.78
2022-11-12T21:23:40.949Z,97542.59
2022-11-12T21:26:26.107Z,97572.44
2022-11-12T21:29:13.552Z,97542.34
2022-11-12T21:32:02.008Z,97555.41
2022-11-12T21:34:47.416Z,97543.94
2022-11-12T21:37:32.839Z,97563.53
2022-11-12T21:40:18.496Z,97556.41
2022-11-12T21:43:03.773Z,97550.19
2022-11-12T21:45:49.186Z,97523.44
2022-11-12T21:48:35.014Z,97537.56
2022-11-12T21:51:23.096Z,97547.19
2022-11-12T21:54:15.040Z,97546.78
2022-11-12T21:57:00.346Z,97509.69
2022-11-12T21:59:46.207Z,97491.44
2022-11-12T22:02:31.220Z,97527.84
2022-11-12T22:05:16.725Z,97496.00
2022-11-12T22:08:02.235Z,97483.09
2022-11-12T22:10:47.289Z,97524.25
2022-11-12T22:13:35.591Z,97521.19
2022-11-12T22:16:26.205Z,97532.41
2022-11-12T22:19:12.825Z,97526.78
2022-11-12T22:21:58.010Z,97505.69
2022-11-12T22:24:43.400Z,97526.16
2022-11-12T22:27:31.464Z,97526.41
2022-11-12T22:30:16.922Z,97508.50
2022-11-12T22:33:02.137Z,97523.56
2022-11-12T22:35:47.518Z,97403.44
2022-11-12T22:38:34.373Z,97513.38
2022-11-12T22:41:25.547Z,97504.38
2022-11-12T22:44:10.499Z,97478.38
2022-11-12T22:46:55.772Z,97522.84
2022-11-12T22:49:41.075Z,97476.53
2022-11-12T22:52:26.491Z,97490.63
2022-11-12T22:55:11.967Z,97523.00
2022-11-12T22:57:59.674Z,97528.00
2022-11-12T23:00:45.418Z,97534.53
2022-11-12T23:03:32.139Z,97499.78
2022-11-12T23:06:18.134Z,97514.06
2022-11-12T23:09:04.034Z,97505.50
2022-11-12T23:11:49.218Z,97500.03
2022-11-12T23:14:36.761Z,97487.63
2022-11-12T23:17:21.766Z,97486.69
2022-11-12T23:20:07.745Z,97505.56
2022-11-12T23:22:52.981Z,97472.56
2022-11-12T23:25:38.374Z,97501.59
2022-11-12T23:28:23.712Z,97496.88
2022-11-12T23:31:18.713Z,97493.03
2022-11-12T23:34:03.875Z,97467.38
2022-11-12T23:37:09.371Z,97448.53
2022-11-12T23:39:54.500Z,97452.16
2022-11-12T23:42:39.529Z,97455.47
2022-11-12T23:45:24.780Z,97443.91
2022-11-12T23:48:09.925Z,97468.13
2022-11-12T23:51:10.518Z,97469.03
2022-11-12T23:53:55.742Z,97455.06
2022-11-12T23:56:40.872Z,97461.28
2022-11-12T23:59:25.765Z,97471.91
